createdAt,value
2018-07-17T00:01:36.635Z,97810.08
2018-07-17T00:04:04.606Z,97811.00
2018-07-17T00:06:32.608Z,97804.63
2018-07-17T00:09:00.663Z,97806.83
2018-07-17T00:11:28.628Z,97801.09
2018-07-17T00:13:56.511Z,97799.48
2018-07-17T00:16:24.532Z,97790.30
2018-07-17T00:18:52.500Z,97791.24
2018-07-17T00:21:20.546Z,97792.94
2018-07-17T00:23:48.882Z,97793.03
2018-07-17T00:26:17.757Z,97794.94
2018-07-17T00:28:45.640Z,97786.13
2018-07-17T00:31:13.591Z,97793.44
2018-07-17T00:33:41.537Z,97791.24
2018-07-17T00:36:09.469Z,97790.73
2018-07-17T00:38:37.555Z,97786.39
2018-07-17T00:41:06.206Z,97781.17
2018-07-17T00:43:34.098Z,97782.28
2018-07-17T00:46:02.044Z,97780.98
2018-07-17T00:48:30.324Z,97781.22
2018-07-17T00:50:58.275Z,97784.70
2018-07-17T00:53:26.231Z,97785.91
2018-07-17T00:55:54.206Z,97790.22
2018-07-17T00:58:22.124Z,97791.02
2018-07-17T01:00:49.624Z,97777.74
2018-07-17T01:03:22.895Z,97784.30
2018-07-17T01:05:56.295Z,97777.31
2018-07-17T01:08:29.729Z,97771.98
2018-07-17T01:11:03.321Z,97768.65
2018-07-17T01:13:41.127Z,97765.91
2018-07-17T01:16:09.314Z,97762.97
2018-07-17T01:18:37.214Z,97758.40
2018-07-17T01:21:05.150Z,97756.16
2018-07-17T01:23:33.058Z,97749.81
2018-07-17T01:26:01.043Z,97758.89
2018-07-17T01:28:29.092Z,97756.41
2018-07-17T01:30:57.042Z,97760.28
2018-07-17T01:33:26.080Z,97761.09
2018-07-17T01:35:54.049Z,97757.34
2018-07-17T01:38:22.040Z,97752.90
2018-07-17T01:40:50.121Z,97757.56
2018-07-17T01:43:18.186Z,97752.11
2018-07-17T01:45:46.203Z,97752.59
2018-07-17T01:48:14.110Z,97755.53
2018-07-17T01:50:42.451Z,97761.38
2018-07-17T01:53:10.482Z,97768.09
2018-07-17T01:55:38.512Z,97775.87
2018-07-17T02:04:53.971Z,97769.56
2018-07-17T02:07:22.537Z,97770.39
2018-07-17T02:09:50.574Z,97763.56
2018-07-17T02:12:18.492Z,97754.98
2018-07-17T02:14:46.469Z,97756.36
2018-07-17T02:17:14.419Z,97759.41
2018-07-17T02:19:42.430Z,97757.81
2018-07-17T02:22:10.360Z,97764.77
2018-07-17T02:24:38.270Z,97762.57
2018-07-17T02:27:06.525Z,97766.05
2018-07-17T02:29:34.505Z,97765.24
2018-07-17T02:32:02.550Z,97767.33
2018-07-17T02:34:30.555Z,97771.55
2018-07-17T02:36:58.515Z,97765.06
2018-07-17T02:39:26.589Z,97768.50
2018-07-17T02:41:54.533Z,97771.55
2018-07-17T02:44:22.515Z,97776.68
2018-07-17T02:46:50.458Z,97775.13
2018-07-17T02:49:18.477Z,97775.20
2018-07-17T02:51:46.499Z,97774.50
2018-07-17T02:54:20.744Z,97770.41
2018-07-17T02:56:48.800Z,97764.33
2018-07-17T02:59:16.866Z,97752.66
2018-07-17T03:01:44.754Z,97747.34
2018-07-17T03:04:12.668Z,97743.23
2018-07-17T03:06:40.640Z,97736.25
2018-07-17T03:09:08.540Z,97736.50
2018-07-17T03:11:36.498Z,97734.25
2018-07-17T03:14:04.687Z,97735.88
2018-07-17T03:16:32.703Z,97733.42
2018-07-17T03:19:00.679Z,97736.63
2018-07-17T03:21:31.312Z,97727.82
2018-07-17T03:24:11.907Z,97739.47
2018-07-17T03:26:39.999Z,97724.58
2018-07-17T03:29:07.891Z,97719.63
2018-07-17T03:31:36.040Z,97717.17
2018-07-17T03:34:04.101Z,97715.19
2018-07-17T03:36:32.093Z,97710.08
2018-07-17T03:39:00.076Z,97703.23
2018-07-17T03:41:28.117Z,97702.33
2018-07-17T03:43:56.103Z,97721.94
2018-07-17T03:46:24.236Z,97713.16
2018-07-17T03:48:52.159Z,97712.12
2018-07-17T03:51:20.125Z,97713.14
2018-07-17T03:53:48.122Z,97713.14
2018-07-17T03:56:16.177Z,97716.27
2018-07-17T03:58:44.215Z,97712.41
2018-07-17T04:01:12.308Z,97709.84
2018-07-17T04:03:40.304Z,97709.25
2018-07-17T04:06:08.313Z,97705.91
2018-07-17T04:08:36.316Z,97721.45
2018-07-17T04:11:04.410Z,97720.20
2018-07-17T04:13:32.545Z,97715.66
2018-07-17T04:16:00.565Z,97716.91
2018-07-17T04:18:28.569Z,97724.51
2018-07-17T04:20:56.440Z,97717.41
2018-07-17T04:23:24.336Z,97713.52
2018-07-17T04:25:52.402Z,97711.00
2018-07-17T04:28:20.461Z,97707.05
2018-07-17T04:30:48.634Z,97711.26
2018-07-17T04:33:16.597Z,97707.91
2018-07-17T04:35:44.552Z,97713.07
2018-07-17T04:38:12.640Z,97713.30
2018-07-17T04:40:40.551Z,97713.72
2018-07-17T04:43:08.479Z,97711.45
2018-07-17T04:45:36.422Z,97710.03
2018-07-17T04:48:04.990Z,97713.63
2018-07-17T04:50:33.111Z,97722.20
2018-07-17T04:53:01.035Z,97720.50
2018-07-17T04:55:29.032Z,97721.66
2018-07-17T04:57:57.007Z,97711.03
2018-07-17T05:00:24.979Z,97713.36
2018-07-17T05:02:53.030Z,97704.34
2018-07-17T05:05:21.931Z,97700.48
2018-07-17T05:07:49.974Z,97687.92
2018-07-17T05:10:18.054Z,97692.56
2018-07-17T05:12:45.987Z,97682.80
2018-07-17T05:15:13.977Z,97680.79
2018-07-17T05:17:41.968Z,97688.84
2018-07-17T05:20:09.983Z,97685.03
2018-07-17T05:22:38.017Z,97689.17
2018-07-17T05:25:06.039Z,97689.17
2018-07-17T05:27:34.045Z,97686.30
2018-07-17T05:30:02.178Z,97694.27
2018-07-17T05:32:30.156Z,97686.09
2018-07-17T05:34:58.151Z,97685.34
2018-07-17T05:37:26.171Z,97682.16
2018-07-17T05:39:54.266Z,97683.21
2018-07-17T05:42:22.331Z,97680.91
2018-07-17T05:44:50.295Z,97682.39
2018-07-17T05:47:18.270Z,97672.02
2018-07-17T05:49:48.474Z,97667.20
2018-07-17T05:52:16.401Z,97667.80
2018-07-17T05:54:44.356Z,97668.34
2018-07-17T05:57:12.339Z,97661.59
2018-07-17T05:59:40.649Z,97658.73
2018-07-17T06:02:10.422Z,97662.59
2018-07-17T06:04:38.523Z,97657.92
2018-07-17T06:07:06.644Z,97648.75
2018-07-17T06:09:34.609Z,97646.73
2018-07-17T06:12:02.619Z,97648.02
2018-07-17T06:14:30.682Z,97640.19
2018-07-17T06:16:58.804Z,97635.41
2018-07-17T06:19:26.879Z,97633.18
2018-07-17T06:21:54.811Z,97635.78
2018-07-17T06:24:22.823Z,97631.97
2018-07-17T06:26:50.841Z,97627.24
2018-07-17T06:29:18.808Z,97629.77
2018-07-17T06:31:46.886Z,97624.34
2018-07-17T06:34:14.849Z,97627.62
2018-07-17T06:36:42.942Z,97628.20
2018-07-17T06:39:11.119Z,97624.62
2018-07-17T06:41:40.258Z,97623.02
2018-07-17T06:44:08.504Z,97619.09
2018-07-17T06:46:36.430Z,97621.38
2018-07-17T06:49:04.610Z,97612.61
2018-07-17T06:51:32.674Z,97609.25
2018-07-17T06:54:00.758Z,97613.28
2018-07-17T06:56:28.741Z,97613.96
2018-07-17T06:58:56.808Z,97616.81
2018-07-17T07:01:24.865Z,97618.52
2018-07-17T07:03:53.011Z,97617.12
2018-07-17T07:06:21.007Z,97617.79
2018-07-17T07:08:48.956Z,97610.84
2018-07-17T07:11:17.141Z,97611.30
2018-07-17T07:13:45.131Z,97610.56
2018-07-17T07:16:13.035Z,97609.36
2018-07-17T07:18:41.037Z,97607.92
2018-07-17T07:21:08.979Z,97609.09
2018-07-17T07:23:36.982Z,97601.05
2018-07-17T07:26:04.974Z,97595.73
2018-07-17T07:28:33.181Z,97598.63
2018-07-17T07:31:01.258Z,97599.23
2018-07-17T07:33:29.287Z,97603.33
2018-07-17T07:35:57.220Z,97601.22
2018-07-17T07:38:25.238Z,97601.15
2018-07-17T07:40:53.570Z,97605.45
2018-07-17T07:43:23.438Z,97610.17
2018-07-17T07:45:51.396Z,97607.95
2018-07-17T07:48:19.367Z,97605.31
2018-07-17T07:50:47.337Z,97601.02
2018-07-17T07:53:15.574Z,97592.41
2018-07-17T07:55:44.456Z,97583.71
2018-07-17T07:58:12.450Z,97588.42
2018-07-17T08:00:40.548Z,97580.70
2018-07-17T08:03:08.674Z,97579.98
2018-07-17T08:05:36.605Z,97583.41
2018-07-17T08:08:04.579Z,97585.44
2018-07-17T08:10:32.604Z,97571.09
2018-07-17T08:13:00.603Z,97571.76
2018-07-17T08:15:28.553Z,97572.23
2018-07-17T08:17:56.651Z,97569.06
2018-07-17T08:20:24.719Z,97568.13
2018-07-17T08:22:52.626Z,97566.36
2018-07-17T08:25:20.639Z,97569.12
2018-07-17T08:27:48.771Z,97568.91
2018-07-17T08:30:16.808Z,97568.51
2018-07-17T08:32:44.817Z,97566.09
2018-07-17T08:35:12.966Z,97568.08
2018-07-17T08:37:42.192Z,97567.99
2018-07-17T08:40:14.859Z,97563.73
2018-07-17T08:42:48.703Z,97565.79
2018-07-17T08:45:22.914Z,97568.97
2018-07-17T08:47:51.087Z,97575.38
2018-07-17T08:50:19.624Z,97565.96
2018-07-17T08:52:47.616Z,97567.72
2018-07-17T08:55:15.686Z,97561.70
2018-07-17T08:57:43.635Z,97556.91
2018-07-17T09:00:11.595Z,97560.69
2018-07-17T09:02:39.732Z,97552.39
2018-07-17T09:05:07.850Z,97551.91
2018-07-17T09:07:35.811Z,97550.99
2018-07-17T09:10:04.092Z,97548.09
2018-07-17T09:12:32.042Z,97546.39
2018-07-17T09:15:01.705Z,97546.63
2018-07-17T09:17:32.801Z,97549.03
2018-07-17T09:20:00.856Z,97547.67
2018-07-17T09:22:28.911Z,97545.19
2018-07-17T09:24:56.926Z,97542.29
2018-07-17T09:27:25.999Z,97543.44
2018-07-17T09:29:54.090Z,97549.83
2018-07-17T09:32:22.115Z,97546.55
2018-07-17T09:34:50.086Z,97542.49
2018-07-17T09:37:19.322Z,97544.50
2018-07-17T09:39:47.339Z,97542.77
2018-07-17T09:42:15.310Z,97543.08
2018-07-17T09:44:43.425Z,97537.19
2018-07-17T09:47:11.463Z,97539.59
2018-07-17T09:49:39.421Z,97530.36
2018-07-17T09:52:07.669Z,97532.19
2018-07-17T09:54:35.615Z,97523.60
2018-07-17T09:57:03.798Z,97525.00
2018-07-17T09:59:31.924Z,97516.94
2018-07-17T10:02:05.395Z,97515.98
2018-07-17T10:04:33.340Z,97515.31
2018-07-17T10:07:01.555Z,97511.16
2018-07-17T10:09:29.709Z,97512.10
2018-07-17T10:11:57.656Z,97500.55
2018-07-17T10:14:25.805Z,97505.23
2018-07-17T10:16:54.119Z,97498.16
2018-07-17T10:19:22.326Z,97498.51
2018-07-17T10:21:50.321Z,97496.83
2018-07-17T10:24:18.374Z,97497.80
2018-07-17T10:26:46.472Z,97500.72
2018-07-17T10:29:14.551Z,97491.46
2018-07-17T10:31:42.485Z,97490.79
2018-07-17T10:34:10.669Z,97483.82
2018-07-17T10:36:38.820Z,97473.30
2018-07-17T10:39:08.307Z,97470.22
2018-07-17T10:41:36.821Z,97471.05
2018-07-17T10:44:04.900Z,97462.37
2018-07-17T10:46:32.975Z,97461.13
2018-07-17T10:49:01.028Z,97451.38
2018-07-17T10:51:29.364Z,97451.50
2018-07-17T10:53:57.464Z,97457.69
2018-07-17T10:56:25.612Z,97458.53
2018-07-17T10:58:53.988Z,97448.59
2018-07-17T11:01:22.915Z,97449.66
2018-07-17T11:03:51.129Z,97450.12
2018-07-17T11:06:20.781Z,97442.92
2018-07-17T11:08:48.812Z,97441.55
2018-07-17T11:11:17.214Z,97441.17
2018-07-17T11:13:45.151Z,97445.33
2018-07-17T11:16:13.160Z,97442.05
2018-07-17T11:18:41.264Z,97443.77
2018-07-17T11:21:09.248Z,97451.88
2018-07-17T11:23:37.486Z,97457.23
2018-07-17T11:26:05.577Z,97455.25
2018-07-17T11:28:33.896Z,97461.06
2018-07-17T11:31:01.920Z,97457.78
2018-07-17T11:33:29.870Z,97467.47
2018-07-17T11:35:57.990Z,97464.19
2018-07-17T11:38:26.298Z,97470.63
2018-07-17T11:40:54.305Z,97463.95
2018-07-17T11:43:22.394Z,97468.61
2018-07-17T11:45:50.546Z,97468.05
2018-07-17T11:48:18.505Z,97480.60
2018-07-17T11:50:46.525Z,97484.45
2018-07-17T11:53:14.552Z,97487.48
2018-07-17T11:55:42.666Z,97487.31
2018-07-17T11:58:10.658Z,97491.55
2018-07-17T12:00:38.622Z,97502.70
2018-07-17T12:03:06.650Z,97513.95
2018-07-17T12:05:34.626Z,97526.81
2018-07-17T12:08:02.624Z,97553.63
2018-07-17T12:10:30.609Z,97567.00
2018-07-17T12:12:58.594Z,97576.97
2018-07-17T12:15:26.584Z,97590.34
2018-07-17T12:17:54.570Z,97593.72
2018-07-17T12:20:22.754Z,97590.91
2018-07-17T12:22:50.492Z,97599.33
2018-07-17T12:25:18.462Z,97598.76
2018-07-17T12:27:46.547Z,97602.21
2018-07-17T12:30:14.447Z,97598.36
2018-07-17T12:32:42.450Z,97594.50
2018-07-17T12:35:10.634Z,97590.64
2018-07-17T12:37:38.656Z,97590.95
2018-07-17T12:40:06.734Z,97588.79
2018-07-17T12:42:34.728Z,97591.73
2018-07-17T12:45:02.703Z,97599.69
2018-07-17T12:47:30.989Z,97606.89
2018-07-17T12:49:59.247Z,97606.29
2018-07-17T12:52:27.354Z,97607.17
2018-07-17T12:54:55.662Z,97612.48
2018-07-17T12:57:23.824Z,97614.72
2018-07-17T12:59:51.910Z,97615.53
2018-07-17T13:02:20.241Z,97617.36
2018-07-17T13:04:48.220Z,97619.76
2018-07-17T13:07:16.154Z,97617.02
2018-07-17T13:09:44.812Z,97603.98
2018-07-17T13:12:12.779Z,97579.70
2018-07-17T13:14:40.748Z,97554.23
2018-07-17T13:17:08.726Z,97510.33
2018-07-17T13:19:36.716Z,97479.97
2018-07-17T13:22:04.682Z,97453.52
2018-07-17T13:24:32.777Z,97452.41
2018-07-17T13:27:00.817Z,97467.53
2018-07-17T13:29:28.706Z,97458.51
2018-07-17T13:31:56.926Z,97454.48
2018-07-17T13:34:24.898Z,97447.75
2018-07-17T13:36:52.879Z,97452.18
2018-07-17T13:39:21.098Z,97453.57
2018-07-17T13:41:49.050Z,97462.81
2018-07-17T13:44:17.098Z,97465.97
2018-07-17T13:46:45.197Z,97473.42
2018-07-17T13:49:13.094Z,97468.36
2018-07-17T13:51:41.082Z,97474.30
2018-07-17T13:54:09.039Z,97481.67
2018-07-17T13:56:37.023Z,97479.31
2018-07-17T13:59:05.167Z,97486.65
2018-07-17T14:01:33.159Z,97461.16
2018-07-17T14:04:01.259Z,97456.16
2018-07-17T14:06:29.224Z,97466.62
2018-07-17T14:08:57.282Z,97447.19
2018-07-17T14:11:25.296Z,97454.52
2018-07-17T14:13:53.556Z,97451.54
2018-07-17T14:16:22.582Z,97443.63
2018-07-17T14:18:50.535Z,97440.26
2018-07-17T14:21:18.565Z,97442.89
2018-07-17T14:23:46.620Z,97428.11
2018-07-17T14:26:14.629Z,97437.72
2018-07-17T14:28:42.657Z,97435.36
2018-07-17T14:31:10.682Z,97429.94
2018-07-17T14:33:38.869Z,97424.92
2018-07-17T14:36:07.618Z,97417.73
2018-07-17T14:38:35.761Z,97418.69
2018-07-17T14:41:03.738Z,97422.14
2018-07-17T14:43:31.632Z,97414.91
2018-07-17T14:45:59.680Z,97418.06
2018-07-17T14:48:27.692Z,97430.23
2018-07-17T14:50:55.976Z,97409.78
2018-07-17T14:53:24.556Z,97402.61
2018-07-17T14:55:54.784Z,97410.00
2018-07-17T14:58:26.217Z,97412.02
2018-07-17T15:01:02.570Z,97400.71
2018-07-17T15:03:30.558Z,97400.74
2018-07-17T15:06:00.669Z,97405.87
2018-07-17T15:08:37.921Z,97401.04
2018-07-17T15:11:06.833Z,97388.11
2018-07-17T15:13:35.948Z,97388.00
2018-07-17T15:16:06.658Z,97382.88
2018-07-17T15:18:36.843Z,97380.17
2018-07-17T15:21:04.799Z,97370.83
2018-07-17T15:23:32.764Z,97379.28
2018-07-17T15:26:00.787Z,97377.31
2018-07-17T15:28:28.729Z,97382.14
2018-07-17T15:30:56.810Z,97386.41
2018-07-17T15:33:24.877Z,97397.66
2018-07-17T15:35:52.990Z,97396.09
2018-07-17T15:38:20.932Z,97398.03
2018-07-17T15:40:50.920Z,97402.86
2018-07-17T15:43:19.341Z,97402.72
2018-07-17T15:45:47.505Z,97405.30
2018-07-17T15:48:15.656Z,97409.30
2018-07-17T15:50:43.716Z,97411.55
2018-07-17T15:53:11.675Z,97410.91
2018-07-17T15:55:40.673Z,97413.38
2018-07-17T15:58:10.159Z,97416.64
2018-07-17T16:00:38.174Z,97411.93
2018-07-17T16:03:07.697Z,97417.31
2018-07-17T16:05:35.686Z,97416.90
2018-07-17T16:08:03.855Z,97421.35
2018-07-17T16:10:31.879Z,97424.83
2018-07-17T16:12:59.923Z,97424.67
2018-07-17T16:15:28.072Z,97416.59
2018-07-17T16:17:56.151Z,97417.30
2018-07-17T16:20:24.440Z,97408.34
2018-07-17T16:22:52.769Z,97407.73
2018-07-17T16:25:21.193Z,97409.49
2018-07-17T16:27:49.866Z,97412.88
2018-07-17T16:30:17.826Z,97409.03
2018-07-17T16:32:45.742Z,97409.38
2018-07-17T16:35:13.690Z,97412.95
2018-07-17T16:37:41.670Z,97413.60
2018-07-17T16:40:09.771Z,97413.66
2018-07-17T16:42:37.763Z,97420.37
2018-07-17T16:45:06.193Z,97423.17
2018-07-17T16:47:34.190Z,97434.63
2018-07-17T16:50:02.548Z,97430.59
2018-07-17T16:52:30.522Z,97419.44
2018-07-17T16:54:58.913Z,97424.20
2018-07-17T16:57:26.962Z,97433.30
2018-07-17T16:59:54.893Z,97435.80
2018-07-17T17:02:22.868Z,97440.13
2018-07-17T17:04:50.844Z,97446.16
2018-07-17T17:07:19.027Z,97448.84
2018-07-17T17:09:47.236Z,97457.83
2018-07-17T17:12:15.198Z,97464.41
2018-07-17T17:14:43.146Z,97458.45
2018-07-17T17:17:11.683Z,97465.28
2018-07-17T17:19:39.619Z,97462.58
2018-07-17T17:22:07.549Z,97461.80
2018-07-17T17:24:40.716Z,97462.28
2018-07-17T17:27:08.845Z,97464.96
2018-07-17T17:29:36.819Z,97466.50
2018-07-17T17:32:04.874Z,97474.38
2018-07-17T17:34:32.839Z,97474.70
2018-07-17T17:37:08.058Z,97468.41
2018-07-17T17:39:36.178Z,97472.59
2018-07-17T17:42:04.177Z,97482.35
2018-07-17T17:44:32.332Z,97480.48
2018-07-17T17:47:00.286Z,97479.66
2018-07-17T17:49:28.271Z,97481.53
2018-07-17T17:51:56.288Z,97479.84
2018-07-17T17:54:24.240Z,97474.72
2018-07-17T17:56:53.144Z,97476.33
2018-07-17T17:59:21.419Z,97472.27
2018-07-17T18:01:49.365Z,97470.28
2018-07-17T18:04:17.382Z,97475.11
2018-07-17T18:06:45.318Z,97476.14
2018-07-17T18:09:13.318Z,97481.70
2018-07-17T18:11:41.318Z,97481.57
2018-07-17T18:14:09.336Z,97482.94
2018-07-17T18:16:42.801Z,97487.03
2018-07-17T18:19:12.047Z,97484.09
2018-07-17T18:21:40.306Z,97491.92
2018-07-17T18:24:08.386Z,97502.38
2018-07-17T18:26:36.753Z,97503.12
2018-07-17T18:29:04.691Z,97509.80
2018-07-17T18:31:32.760Z,97512.30
2018-07-17T18:34:00.804Z,97510.00
2018-07-17T18:36:29.366Z,97506.34
2018-07-17T18:38:57.359Z,97512.98
2018-07-17T18:41:25.637Z,97510.13
2018-07-17T18:43:53.540Z,97506.53
2018-07-17T18:46:21.709Z,97519.50
2018-07-17T18:48:49.819Z,97517.34
2018-07-17T18:51:18.347Z,97518.62
2018-07-17T18:53:46.807Z,97522.26
2018-07-17T18:56:14.822Z,97524.14
2018-07-17T18:58:43.979Z,97523.63
2018-07-17T19:01:12.150Z,97519.80
2018-07-17T19:03:40.671Z,97520.76
2018-07-17T19:06:09.572Z,97515.17
2018-07-17T19:08:37.824Z,97508.19
2018-07-17T19:11:06.077Z,97509.00
2018-07-17T19:13:34.100Z,97509.19
2018-07-17T19:16:02.074Z,97504.80
2018-07-17T19:18:30.160Z,97507.20
2018-07-17T19:20:58.463Z,97514.78
2018-07-17T19:23:26.698Z,97509.27
2018-07-17T19:25:54.825Z,97507.42
2018-07-17T19:28:23.060Z,97500.36
2018-07-17T19:30:51.086Z,97505.52
2018-07-17T19:33:19.255Z,97506.48
2018-07-17T19:35:48.149Z,97506.95
2018-07-17T19:38:16.167Z,97507.52
2018-07-17T19:40:44.222Z,97502.27
2018-07-17T19:43:12.476Z,97501.95
2018-07-17T19:45:40.492Z,97500.66
2018-07-17T19:48:08.657Z,97508.55
2018-07-17T19:50:36.731Z,97514.31
2018-07-17T19:53:04.774Z,97518.33
2018-07-17T19:55:33.106Z,97511.04
2018-07-17T19:58:01.257Z,97511.73
2018-07-17T20:00:29.160Z,97508.69
2018-07-17T20:02:57.103Z,97504.32
2018-07-17T20:05:25.079Z,97509.70
2018-07-17T20:07:53.117Z,97515.42
2018-07-17T20:10:22.153Z,97516.39
2018-07-17T20:12:50.186Z,97512.86
2018-07-17T20:15:18.272Z,97510.75
2018-07-17T20:17:46.191Z,97512.27
2018-07-17T20:20:14.082Z,97509.92
2018-07-17T20:22:42.053Z,97511.89
2018-07-17T20:25:10.155Z,97508.19
2018-07-17T20:27:38.213Z,97509.41
2018-07-17T20:30:06.251Z,97502.47
2018-07-17T20:32:34.296Z,97500.61
2018-07-17T20:35:02.217Z,97501.59
2018-07-17T20:37:30.224Z,97499.51
2018-07-17T20:39:58.520Z,97492.06
2018-07-17T20:42:26.551Z,97504.88
2018-07-17T20:44:54.578Z,97506.51
2018-07-17T20:47:22.503Z,97509.61
2018-07-17T20:49:50.822Z,97505.16
2018-07-17T20:52:18.817Z,97501.13
2018-07-17T20:54:47.812Z,97492.48
2018-07-17T20:57:16.025Z,97496.53
2018-07-17T20:59:44.019Z,97501.20
2018-07-17T21:02:12.274Z,97505.00
2018-07-17T21:04:40.399Z,97506.14
2018-07-17T21:07:08.501Z,97499.78
2018-07-17T21:09:36.598Z,97492.31
2018-07-17T21:12:05.311Z,97497.47
2018-07-17T21:14:33.372Z,97495.80
2018-07-17T21:17:01.520Z,97503.67
2018-07-17T21:19:29.557Z,97514.70
2018-07-17T21:21:57.729Z,97503.88
2018-07-17T21:24:25.788Z,97509.69
2018-07-17T21:29:21.231Z,97511.76
2018-07-17T21:31:49.335Z,97508.89
2018-07-17T21:34:17.761Z,97509.39
2018-07-17T21:36:45.859Z,97520.81
2018-07-17T21:39:13.998Z,97527.18
2018-07-17T21:41:42.144Z,97518.82
2018-07-17T21:44:10.238Z,97522.00
2018-07-17T21:46:38.398Z,97520.14
2018-07-17T21:49:06.665Z,97516.97
2018-07-17T21:51:34.674Z,97514.39
2018-07-17T21:54:02.766Z,97510.77
2018-07-17T21:56:30.871Z,97512.89
2018-07-17T21:58:58.938Z,97513.02
2018-07-17T22:01:27.007Z,97511.19
2018-07-17T22:03:55.120Z,97503.88
2018-07-17T22:06:23.281Z,97496.40
2018-07-17T22:08:51.650Z,97488.05
2018-07-17T22:11:19.902Z,97479.05
2018-07-17T22:13:48.007Z,97472.06
2018-07-17T22:16:16.036Z,97473.17
2018-07-17T22:18:44.182Z,97461.44
2018-07-17T22:21:12.199Z,97466.58
2018-07-17T22:23:40.367Z,97462.02
2018-07-17T22:26:08.481Z,97458.33
2018-07-17T22:28:36.652Z,97470.60
2018-07-17T22:31:04.761Z,97448.83
2018-07-17T22:33:32.863Z,97435.77
2018-07-17T22:36:00.950Z,97441.63
2018-07-17T22:38:29.025Z,97436.08
2018-07-17T22:40:57.465Z,97435.53
2018-07-17T22:43:25.542Z,97434.79
2018-07-17T22:45:53.675Z,97437.47
2018-07-17T22:48:21.772Z,97432.45
2018-07-17T22:50:49.845Z,97429.27
2018-07-17T22:53:17.910Z,97425.17
2018-07-17T22:55:45.969Z,97428.96
2018-07-17T22:58:14.022Z,97417.97
2018-07-17T23:00:42.127Z,97420.53
2018-07-17T23:03:10.228Z,97421.66
2018-07-17T23:05:39.145Z,97416.20
2018-07-17T23:08:07.247Z,97419.67
2018-07-17T23:10:35.433Z,97415.88
2018-07-17T23:13:03.586Z,97409.29
2018-07-17T23:15:31.780Z,97414.19
2018-07-17T23:17:59.868Z,97412.86
2018-07-17T23:20:27.895Z,97406.08
2018-07-17T23:22:59.154Z,97405.92
2018-07-17T23:25:28.532Z,97411.23
2018-07-17T23:27:57.394Z,97411.39
2018-07-17T23:30:25.579Z,97411.48
2018-07-17T23:32:53.926Z,97407.70
2018-07-17T23:35:23.063Z,97404.98
2018-07-17T23:37:51.556Z,97405.20
2018-07-17T23:40:20.126Z,97401.74
2018-07-17T23:42:48.296Z,97411.86
2018-07-17T23:45:17.053Z,97409.54
2018-07-17T23:47:46.034Z,97406.00
2018-07-17T23:50:14.162Z,97427.58
2018-07-17T23:52:42.237Z,97435.49
2018-07-17T23:55:10.270Z,97403.06
2018-07-17T23:57:38.662Z,97411.05
